createdAt,value
2017-05-06T00:00:02.110Z,8
2017-05-06T00:01:14.409Z,8
2017-05-06T00:02:26.911Z,8
2017-05-06T00:03:39.697Z,12
2017-05-06T00:04:52.475Z,8
2017-05-06T00:06:05.253Z,8
2017-05-06T00:07:17.546Z,12
2017-05-06T00:08:29.366Z,8
2017-05-06T00:09:42.153Z,8
2017-05-06T00:10:54.940Z,4
2017-05-06T00:12:07.721Z,8
2017-05-06T00:13:20.695Z,8
2017-05-06T00:14:33.477Z,12
2017-05-06T00:16:29.773Z,12
2017-05-06T00:17:42.552Z,8
2017-05-06T00:18:55.343Z,8
2017-05-06T00:20:08.129Z,8
2017-05-06T00:21:20.910Z,8
2017-05-06T00:22:33.209Z,4
2017-05-06T00:23:45.989Z,4
2017-05-06T00:24:58.795Z,12
2017-05-06T00:26:11.093Z,8
2017-05-06T00:27:23.401Z,12
2017-05-06T00:28:36.188Z,8
2017-05-06T00:29:48.975Z,8
2017-05-06T00:31:01.273Z,8
2017-05-06T00:32:12.608Z,4
2017-05-06T00:33:24.907Z,4
2017-05-06T00:34:37.405Z,12
2017-05-06T00:35:50.210Z,12
2017-05-06T00:37:02.987Z,8
2017-05-06T00:38:14.324Z,8
2017-05-06T00:39:27.174Z,8
2017-05-06T00:40:39.958Z,12
2017-05-06T00:41:52.746Z,8
2017-05-06T00:43:05.523Z,12
2017-05-06T00:44:18.303Z,12
2017-05-06T00:45:31.089Z,8
2017-05-06T00:46:42.913Z,12
2017-05-06T00:47:55.696Z,16
2017-05-06T00:49:08.481Z,12
2017-05-06T00:50:21.456Z,12
2017-05-06T00:51:34.242Z,12
2017-05-06T00:52:47.024Z,8
2017-05-06T00:53:59.806Z,4
2017-05-06T00:55:12.591Z,4
2017-05-06T00:56:24.891Z,12
2017-05-06T00:57:37.193Z,12
2017-05-06T00:58:49.494Z,12
2017-05-06T01:00:01.795Z,12
2017-05-06T01:01:14.293Z,8
2017-05-06T01:02:27.074Z,8
2017-05-06T01:03:39.853Z,8
2017-05-06T01:04:52.632Z,8
2017-05-06T01:06:05.411Z,8
2017-05-06T01:07:17.710Z,12
2017-05-06T01:08:30.488Z,4
2017-05-06T01:09:43.277Z,4
2017-05-06T01:10:56.057Z,4
2017-05-06T01:12:08.832Z,12
2017-05-06T01:13:20.650Z,16
2017-05-06T01:14:33.437Z,12
2017-05-06T01:15:46.217Z,4
2017-05-06T01:16:58.993Z,12
2017-05-06T01:18:11.777Z,8
2017-05-06T01:19:24.565Z,12
2017-05-06T01:20:36.863Z,12
2017-05-06T01:21:49.641Z,12
2017-05-06T01:23:02.620Z,8
2017-05-06T01:24:15.407Z,8
2017-05-06T01:25:28.219Z,8
2017-05-06T01:26:41.003Z,8
2017-05-06T01:27:53.790Z,12
2017-05-06T01:29:06.583Z,8
2017-05-06T01:30:19.380Z,8
2017-05-06T01:31:32.173Z,8
2017-05-06T01:32:44.483Z,4
2017-05-06T01:33:57.274Z,12
2017-05-06T01:35:10.045Z,12
2017-05-06T01:36:22.827Z,8
2017-05-06T01:37:35.616Z,8
2017-05-06T01:38:48.423Z,8
2017-05-06T01:40:01.228Z,8
2017-05-06T01:41:14.040Z,8
2017-05-06T01:42:26.872Z,8
2017-05-06T01:43:39.685Z,12
2017-05-06T01:44:52.009Z,8
2017-05-06T01:46:04.813Z,8
2017-05-06T01:47:17.627Z,8
2017-05-06T01:48:30.506Z,12
2017-05-06T01:49:42.885Z,8
2017-05-06T01:50:55.910Z,8
2017-05-06T01:52:08.229Z,12
2017-05-06T01:53:20.544Z,12
2017-05-06T01:54:33.352Z,8
2017-05-06T01:55:46.209Z,12
2017-05-06T01:56:59.222Z,8
2017-05-06T01:58:12.075Z,8
2017-05-06T01:59:24.879Z,8
2017-05-06T02:00:37.203Z,8
2017-05-06T02:01:50.015Z,12
2017-05-06T02:03:02.811Z,4
2017-05-06T02:04:15.121Z,12
2017-05-06T02:05:27.917Z,12
2017-05-06T02:06:40.897Z,12
2017-05-06T02:07:53.677Z,12
2017-05-06T02:09:06.458Z,8
2017-05-06T02:10:19.249Z,8
2017-05-06T02:11:32.037Z,8
2017-05-06T02:12:44.542Z,8
2017-05-06T02:13:56.848Z,8
2017-05-06T02:15:09.635Z,12
2017-05-06T02:16:21.948Z,8
2017-05-06T02:17:34.261Z,4
2017-05-06T02:18:46.560Z,4
2017-05-06T02:19:59.356Z,8
2017-05-06T02:21:12.146Z,12
2017-05-06T02:22:24.930Z,12
2017-05-06T02:23:37.437Z,8
2017-05-06T02:24:50.221Z,12
2017-05-06T02:26:03.014Z,12
2017-05-06T02:27:15.316Z,8
2017-05-06T02:28:28.098Z,8
2017-05-06T02:29:40.923Z,8
2017-05-06T02:30:53.722Z,8
2017-05-06T02:32:06.513Z,8
2017-05-06T02:33:18.815Z,8
2017-05-06T02:34:31.798Z,8
2017-05-06T02:35:44.599Z,8
2017-05-06T02:36:57.385Z,8
2017-05-06T02:38:10.165Z,8
2017-05-06T02:39:22.476Z,12
2017-05-06T02:40:35.260Z,12
2017-05-06T02:41:47.572Z,12
2017-05-06T02:43:00.361Z,12
2017-05-06T02:44:13.145Z,12
2017-05-06T02:45:26.143Z,12
2017-05-06T02:46:38.934Z,4
2017-05-06T02:47:51.733Z,12
2017-05-06T02:49:04.522Z,12
2017-05-06T02:50:16.545Z,12
2017-05-06T02:51:29.343Z,8
2017-05-06T02:52:42.131Z,4
2017-05-06T02:53:54.431Z,4
2017-05-06T02:55:07.219Z,4
2017-05-06T02:56:20.008Z,12
2017-05-06T02:57:32.801Z,12
2017-05-06T02:58:45.594Z,12
2017-05-06T02:59:57.897Z,8
2017-05-06T03:01:10.692Z,8
2017-05-06T03:02:23.004Z,12
2017-05-06T03:03:35.804Z,12
2017-05-06T03:04:48.596Z,12
2017-05-06T03:06:00.921Z,12
2017-05-06T03:07:13.705Z,12
2017-05-06T03:08:26.001Z,12
2017-05-06T03:09:38.778Z,12
2017-05-06T03:10:51.556Z,12
2017-05-06T03:12:04.340Z,12
2017-05-06T03:13:17.128Z,12
2017-05-06T03:14:28.949Z,8
2017-05-06T03:15:41.246Z,12
2017-05-06T03:16:54.032Z,4
2017-05-06T03:18:06.813Z,4
2017-05-06T03:19:19.113Z,4
2017-05-06T03:20:31.414Z,12
2017-05-06T03:21:43.714Z,12
2017-05-06T03:22:56.494Z,12
2017-05-06T03:24:08.819Z,12
2017-05-06T03:25:21.148Z,12
2017-05-06T03:26:33.447Z,12
2017-05-06T03:27:45.756Z,12
2017-05-06T03:28:58.531Z,12
2017-05-06T03:30:11.308Z,12
2017-05-06T03:31:24.083Z,12
2017-05-06T03:32:36.857Z,12
2017-05-06T03:33:49.849Z,4
2017-05-06T03:35:02.629Z,8
2017-05-06T03:36:14.924Z,8
2017-05-06T03:37:27.703Z,8
2017-05-06T03:38:40.479Z,8
2017-05-06T03:39:53.265Z,8
2017-05-06T03:41:06.045Z,8
2017-05-06T03:42:17.864Z,8
2017-05-06T03:43:30.176Z,8
2017-05-06T03:44:42.956Z,8
2017-05-06T03:45:55.737Z,8
2017-05-06T03:47:08.514Z,8
2017-05-06T03:48:20.831Z,8
2017-05-06T03:49:33.615Z,8
2017-05-06T03:50:45.917Z,4
2017-05-06T03:51:58.216Z,12
2017-05-06T03:53:10.519Z,8
2017-05-06T03:54:22.824Z,8
2017-05-06T03:55:35.612Z,4
2017-05-06T03:56:48.391Z,12
2017-05-06T03:58:01.174Z,12
2017-05-06T03:59:12.992Z,12
2017-05-06T04:00:25.777Z,12
2017-05-06T04:01:38.555Z,8
2017-05-06T04:02:51.340Z,8
2017-05-06T04:04:04.130Z,8
2017-05-06T04:05:16.425Z,4
2017-05-06T04:06:28.722Z,4
2017-05-06T04:07:41.498Z,12
2017-05-06T04:08:54.280Z,12
2017-05-06T04:10:07.065Z,8
2017-05-06T04:11:19.363Z,8
2017-05-06T04:12:32.343Z,12
2017-05-06T04:13:45.127Z,8
2017-05-06T04:14:57.904Z,8
2017-05-06T04:16:10.201Z,8
2017-05-06T04:17:22.794Z,8
2017-05-06T04:18:35.576Z,8
2017-05-06T04:19:47.873Z,4
2017-05-06T04:21:00.654Z,4
2017-05-06T04:22:12.952Z,16
2017-05-06T04:23:25.933Z,12
2017-05-06T04:24:38.711Z,8
2017-05-06T04:25:51.491Z,8
2017-05-06T04:27:03.785Z,8
2017-05-06T04:28:15.421Z,4
2017-05-06T04:29:27.724Z,12
2017-05-06T04:30:40.502Z,12
2017-05-06T04:31:53.281Z,12
2017-05-06T04:33:06.062Z,12
2017-05-06T04:34:19.050Z,12
2017-05-06T04:35:31.834Z,12
2017-05-06T04:36:44.614Z,12
2017-05-06T04:37:57.393Z,12
2017-05-06T04:39:09.692Z,12
2017-05-06T04:40:22.472Z,12
2017-05-06T04:41:35.249Z,12
2017-05-06T04:42:48.034Z,12
2017-05-06T04:44:00.813Z,12
2017-05-06T04:45:13.593Z,12
2017-05-06T04:46:26.369Z,12
2017-05-06T04:47:39.147Z,12
2017-05-06T04:48:51.931Z,12
2017-05-06T04:50:04.707Z,12
2017-05-06T04:51:17.486Z,12
2017-05-06T04:52:30.263Z,12
2017-05-06T04:53:43.053Z,12
2017-05-06T04:54:55.836Z,12
2017-05-06T04:56:08.814Z,8
2017-05-06T04:57:20.625Z,8
2017-05-06T04:58:33.403Z,8
2017-05-06T04:59:46.189Z,8
2017-05-06T05:00:58.976Z,8
2017-05-06T05:02:11.752Z,8
2017-05-06T05:03:23.091Z,8
2017-05-06T05:04:35.873Z,12
2017-05-06T05:05:48.647Z,8
2017-05-06T05:07:01.424Z,12
2017-05-06T05:08:14.203Z,8
2017-05-06T05:09:26.501Z,12
2017-05-06T05:10:39.280Z,12
2017-05-06T05:11:52.067Z,12
2017-05-06T05:13:04.845Z,12
2017-05-06T05:14:17.627Z,8
2017-05-06T05:15:30.405Z,12
2017-05-06T05:16:43.188Z,8
2017-05-06T05:17:56.168Z,8
2017-05-06T05:19:08.952Z,8
2017-05-06T05:20:20.765Z,12
2017-05-06T05:21:32.584Z,12
2017-05-06T05:22:45.667Z,8
2017-05-06T05:23:58.466Z,8
2017-05-06T05:25:10.758Z,8
2017-05-06T05:26:23.536Z,8
2017-05-06T05:27:36.341Z,8
2017-05-06T05:28:49.338Z,8
2017-05-06T05:30:02.116Z,12
2017-05-06T05:31:14.897Z,12
2017-05-06T05:32:27.192Z,12
2017-05-06T05:33:40.270Z,12
2017-05-06T05:34:53.053Z,8
2017-05-06T05:36:05.354Z,12
2017-05-06T05:37:17.652Z,8
2017-05-06T05:38:30.429Z,12
2017-05-06T05:39:43.212Z,12
2017-05-06T05:40:55.992Z,8
2017-05-06T05:42:08.294Z,12
2017-05-06T05:43:20.602Z,16
2017-05-06T05:44:33.098Z,12
2017-05-06T05:45:45.876Z,12
2017-05-06T05:46:58.656Z,8
2017-05-06T05:48:10.962Z,12
2017-05-06T05:49:23.739Z,4
2017-05-06T05:50:36.818Z,12
2017-05-06T05:51:49.605Z,16
2017-05-06T05:53:02.383Z,16
2017-05-06T05:54:14.681Z,12
2017-05-06T05:55:27.467Z,8
2017-05-06T05:56:40.247Z,4
2017-05-06T05:57:53.036Z,4
2017-05-06T05:59:05.333Z,4
2017-05-06T06:00:18.116Z,12
2017-05-06T06:01:30.894Z,12
2017-05-06T06:02:43.677Z,12
2017-05-06T06:03:56.458Z,12
2017-05-06T06:05:08.753Z,12
2017-05-06T06:06:21.534Z,12
2017-05-06T06:07:34.316Z,12
2017-05-06T06:08:47.097Z,12
2017-05-06T06:09:59.880Z,12
2017-05-06T06:11:12.177Z,12
2017-05-06T06:12:25.255Z,12
2017-05-06T06:13:38.034Z,12
2017-05-06T06:14:50.819Z,12
2017-05-06T06:16:03.599Z,12
2017-05-06T06:17:16.380Z,12
2017-05-06T06:18:29.158Z,12
2017-05-06T06:19:41.935Z,12
2017-05-06T06:20:54.716Z,12
2017-05-06T06:22:07.495Z,12
2017-05-06T06:23:20.315Z,12
2017-05-06T06:24:32.612Z,12
2017-05-06T06:25:45.388Z,12
2017-05-06T06:26:57.685Z,12
2017-05-06T06:28:10.460Z,12
2017-05-06T06:29:23.240Z,12
2017-05-06T06:30:36.020Z,12
2017-05-06T06:31:48.801Z,12
2017-05-06T06:33:01.577Z,12
2017-05-06T06:34:14.355Z,8
2017-05-06T06:35:26.654Z,8
2017-05-06T06:36:39.436Z,8
2017-05-06T06:37:52.224Z,8
2017-05-06T06:39:05.000Z,8
2017-05-06T06:40:17.297Z,12
2017-05-06T06:41:30.073Z,12
2017-05-06T06:42:42.370Z,12
2017-05-06T06:43:55.151Z,8
2017-05-06T06:45:08.128Z,4
2017-05-06T06:46:20.425Z,8
2017-05-06T06:47:33.207Z,8
2017-05-06T06:48:45.982Z,4
2017-05-06T06:49:58.484Z,12
2017-05-06T06:51:11.264Z,12
2017-05-06T06:52:23.562Z,12
2017-05-06T06:53:35.377Z,8
2017-05-06T06:54:48.155Z,4
2017-05-06T06:56:00.934Z,4
2017-05-06T06:57:13.713Z,8
2017-05-06T06:58:26.498Z,12
2017-05-06T06:59:39.277Z,12
2017-05-06T07:00:52.059Z,12
2017-05-06T07:02:04.842Z,12
2017-05-06T07:03:17.136Z,12
2017-05-06T07:04:29.915Z,12
2017-05-06T07:05:42.697Z,12
2017-05-06T07:06:55.679Z,12
2017-05-06T07:08:07.493Z,12
2017-05-06T07:09:19.791Z,12
2017-05-06T07:10:32.565Z,12
2017-05-06T07:11:45.546Z,12
2017-05-06T07:12:58.323Z,12
2017-05-06T07:14:10.617Z,12
2017-05-06T07:15:22.434Z,12
2017-05-06T07:16:34.735Z,12
2017-05-06T07:17:47.511Z,12
2017-05-06T07:19:00.314Z,12
2017-05-06T07:20:13.097Z,12
2017-05-06T07:21:25.393Z,8
2017-05-06T07:22:38.470Z,8
2017-05-06T07:23:51.261Z,8
2017-05-06T07:25:04.043Z,8
2017-05-06T07:26:15.862Z,8
2017-05-06T07:27:28.639Z,8
2017-05-06T07:28:40.936Z,8
2017-05-06T07:29:53.714Z,8
2017-05-06T07:31:06.491Z,8
2017-05-06T07:32:18.788Z,8
2017-05-06T07:33:31.770Z,8
2017-05-06T07:34:44.548Z,8
2017-05-06T07:35:57.330Z,8
2017-05-06T07:37:09.630Z,8
2017-05-06T07:38:22.411Z,12
2017-05-06T07:39:34.721Z,8
2017-05-06T07:40:47.519Z,8
2017-05-06T07:42:00.315Z,8
2017-05-06T07:43:12.615Z,8
2017-05-06T07:44:25.697Z,8
2017-05-06T07:45:38.005Z,8
2017-05-06T07:46:49.832Z,12
2017-05-06T07:48:02.610Z,8
2017-05-06T07:49:15.394Z,8
2017-05-06T07:50:28.178Z,8
2017-05-06T07:51:40.973Z,8
2017-05-06T07:52:53.784Z,12
2017-05-06T07:54:06.088Z,8
2017-05-06T07:55:18.397Z,8
2017-05-06T07:56:31.189Z,12
2017-05-06T07:57:43.984Z,8
2017-05-06T07:58:56.765Z,12
2017-05-06T08:00:09.073Z,8
2017-05-06T08:01:21.873Z,8
2017-05-06T08:02:34.659Z,8
2017-05-06T08:03:47.437Z,12
2017-05-06T08:05:00.217Z,8
2017-05-06T08:06:12.040Z,4
2017-05-06T08:07:24.373Z,8
2017-05-06T08:08:37.155Z,8
2017-05-06T08:09:49.465Z,8
2017-05-06T08:11:02.255Z,8
2017-05-06T08:12:15.051Z,12
2017-05-06T08:13:27.385Z,12
2017-05-06T08:14:40.172Z,8
2017-05-06T08:15:52.957Z,8
2017-05-06T08:17:05.954Z,8
2017-05-06T08:18:18.259Z,12
2017-05-06T08:19:31.049Z,8
2017-05-06T08:20:43.373Z,8
2017-05-06T08:21:56.153Z,8
2017-05-06T08:23:08.937Z,8
2017-05-06T08:24:21.720Z,8
2017-05-06T08:25:34.508Z,8
2017-05-06T08:26:47.324Z,12
2017-05-06T08:28:00.312Z,12
2017-05-06T08:29:13.087Z,8
2017-05-06T08:30:25.391Z,8
2017-05-06T08:31:38.171Z,8
2017-05-06T08:32:50.949Z,4
2017-05-06T08:34:03.244Z,12
2017-05-06T08:35:16.019Z,12
2017-05-06T08:36:28.319Z,12
2017-05-06T08:37:41.101Z,8
2017-05-06T08:38:54.182Z,8
2017-05-06T08:40:06.967Z,8
2017-05-06T08:41:19.266Z,8
2017-05-06T08:42:31.565Z,12
2017-05-06T08:43:43.859Z,8
2017-05-06T08:44:56.638Z,4
2017-05-06T08:46:08.937Z,4
2017-05-06T08:47:21.722Z,4
2017-05-06T08:48:34.502Z,4
2017-05-06T08:49:46.801Z,12
2017-05-06T08:50:59.579Z,12
2017-05-06T08:52:12.359Z,12
2017-05-06T08:53:24.186Z,4
2017-05-06T08:54:36.484Z,4
2017-05-06T08:55:49.262Z,4
2017-05-06T08:57:01.558Z,12
2017-05-06T08:58:14.344Z,12
2017-05-06T08:59:26.660Z,12
2017-05-06T09:00:39.641Z,8
2017-05-06T09:01:52.420Z,8
2017-05-06T09:03:05.203Z,12
2017-05-06T09:04:17.505Z,12
2017-05-06T09:05:30.315Z,12
2017-05-06T09:06:43.099Z,12
2017-05-06T09:07:55.888Z,12
2017-05-06T09:09:08.685Z,12
2017-05-06T09:10:21.476Z,12
2017-05-06T09:11:34.474Z,12
2017-05-06T09:12:47.263Z,12
2017-05-06T09:14:00.051Z,12
2017-05-06T09:15:12.836Z,12
2017-05-06T09:16:24.661Z,12
2017-05-06T09:17:36.968Z,12
2017-05-06T09:18:49.756Z,12
2017-05-06T09:20:02.548Z,12
2017-05-06T09:21:14.861Z,16
2017-05-06T09:22:27.653Z,12
2017-05-06T09:23:39.958Z,16
2017-05-06T09:24:52.739Z,12
2017-05-06T09:26:05.534Z,16
2017-05-06T09:27:17.357Z,16
2017-05-06T09:28:30.158Z,16
2017-05-06T09:29:42.488Z,20
2017-05-06T09:30:55.273Z,24
2017-05-06T09:32:07.616Z,16
2017-05-06T09:33:20.429Z,16
2017-05-06T09:34:32.731Z,16
2017-05-06T09:35:45.524Z,20
2017-05-06T09:36:58.338Z,20
2017-05-06T09:38:11.134Z,20
2017-05-06T09:39:23.654Z,24
2017-05-06T09:40:36.434Z,28
2017-05-06T09:41:49.232Z,28
2017-05-06T09:43:02.023Z,32
2017-05-06T09:44:14.524Z,32
2017-05-06T09:45:27.316Z,36
2017-05-06T09:46:40.104Z,40
2017-05-06T09:47:52.430Z,36
2017-05-06T09:49:05.222Z,40
2017-05-06T09:50:18.007Z,40
2017-05-06T09:51:30.800Z,44
2017-05-06T09:52:43.592Z,48
2017-05-06T09:53:56.383Z,52
2017-05-06T09:55:09.174Z,56
2017-05-06T09:56:21.485Z,60
2017-05-06T09:57:33.799Z,64
2017-05-06T09:58:46.593Z,56
2017-05-06T09:59:59.386Z,52
2017-05-06T10:01:12.173Z,52
2017-05-06T10:02:24.971Z,52
2017-05-06T10:03:37.765Z,60
2017-05-06T10:04:50.069Z,72
2017-05-06T10:06:02.858Z,64
2017-05-06T10:07:14.690Z,56
2017-05-06T10:08:27.477Z,60
2017-05-06T10:09:40.269Z,64
2017-05-06T10:10:53.048Z,60
2017-05-06T10:12:06.131Z,64
2017-05-06T10:13:18.920Z,72
2017-05-06T10:14:31.695Z,80
2017-05-06T10:15:44.473Z,92
2017-05-06T10:16:57.456Z,96
2017-05-06T10:18:10.236Z,108
2017-05-06T10:19:23.029Z,120
2017-05-06T10:20:35.810Z,128
2017-05-06T10:21:48.108Z,136
2017-05-06T10:23:00.411Z,140
2017-05-06T10:24:13.195Z,148
2017-05-06T10:25:25.984Z,152
2017-05-06T10:26:38.763Z,156
2017-05-06T10:27:51.582Z,160
2017-05-06T10:29:03.887Z,164
2017-05-06T10:30:16.182Z,172
2017-05-06T10:31:28.485Z,180
2017-05-06T10:32:41.266Z,196
2017-05-06T10:33:54.066Z,216
2017-05-06T10:35:06.861Z,224
2017-05-06T10:36:19.641Z,220
2017-05-06T10:37:32.423Z,228
2017-05-06T10:38:45.207Z,248
2017-05-06T10:39:58.010Z,260
2017-05-06T10:41:10.313Z,244
2017-05-06T10:42:23.092Z,228
2017-05-06T10:43:35.874Z,216
2017-05-06T10:44:48.378Z,212
2017-05-06T10:46:01.156Z,208
2017-05-06T10:47:13.934Z,216
2017-05-06T10:48:26.724Z,228
2017-05-06T10:49:39.513Z,228
2017-05-06T10:50:52.291Z,220
2017-05-06T10:52:05.071Z,212
2017-05-06T10:53:17.373Z,208
2017-05-06T10:54:29.681Z,200
2017-05-06T10:55:42.465Z,188
2017-05-06T10:56:55.249Z,196
2017-05-06T10:58:08.028Z,228
2017-05-06T10:59:20.333Z,264
2017-05-06T11:00:33.320Z,272
2017-05-06T11:01:45.619Z,264
2017-05-06T11:02:58.397Z,244
2017-05-06T11:04:11.180Z,236
2017-05-06T11:05:23.972Z,232
2017-05-06T11:06:36.759Z,224
2017-05-06T11:07:49.542Z,208
2017-05-06T11:09:02.323Z,188
2017-05-06T11:10:15.116Z,184
2017-05-06T11:11:27.908Z,196
2017-05-06T11:12:40.206Z,200
2017-05-06T11:13:52.985Z,196
2017-05-06T11:15:05.780Z,184
2017-05-06T11:16:18.097Z,176
2017-05-06T11:17:30.625Z,168
2017-05-06T11:18:43.406Z,164
2017-05-06T11:19:56.200Z,172
2017-05-06T11:21:08.996Z,184
2017-05-06T11:22:20.812Z,216
2017-05-06T11:23:33.593Z,244
2017-05-06T11:24:45.889Z,260
2017-05-06T11:25:58.672Z,272
2017-05-06T11:27:11.456Z,272
2017-05-06T11:28:24.434Z,264
2017-05-06T11:29:36.740Z,232
2017-05-06T11:30:49.039Z,208
2017-05-06T11:32:01.821Z,188
2017-05-06T11:33:14.806Z,184
2017-05-06T11:34:27.584Z,180
2017-05-06T11:35:40.369Z,180
2017-05-06T11:36:53.154Z,188
2017-05-06T11:38:05.943Z,192
2017-05-06T11:39:18.721Z,216
2017-05-06T11:40:31.023Z,252
2017-05-06T11:41:43.805Z,284
2017-05-06T11:42:56.107Z,320
2017-05-06T11:44:09.094Z,356
2017-05-06T11:45:21.886Z,416
2017-05-06T11:46:34.186Z,472
2017-05-06T11:47:46.968Z,496
2017-05-06T11:48:59.750Z,500
2017-05-06T11:50:12.529Z,500
2017-05-06T11:51:25.309Z,496
2017-05-06T11:52:38.090Z,504
2017-05-06T11:53:50.411Z,540
2017-05-06T11:55:03.194Z,528
2017-05-06T11:56:15.011Z,524
2017-05-06T11:57:27.311Z,596
2017-05-06T11:58:40.090Z,524
2017-05-06T11:59:52.871Z,456
2017-05-06T12:01:05.383Z,436
2017-05-06T12:02:17.710Z,460
2017-05-06T12:03:30.490Z,412
2017-05-06T12:04:43.269Z,572
2017-05-06T12:05:55.575Z,1808
2017-05-06T12:07:08.372Z,1848
2017-05-06T12:08:21.152Z,1844
2017-05-06T12:09:33.933Z,1160
2017-05-06T12:10:46.240Z,2008
2017-05-06T12:11:59.033Z,1964
2017-05-06T12:13:11.828Z,1524
2017-05-06T12:14:24.609Z,640
2017-05-06T12:15:37.395Z,1572
2017-05-06T12:16:50.398Z,1288
2017-05-06T12:18:03.190Z,872
2017-05-06T12:19:15.485Z,776
2017-05-06T12:20:27.784Z,692
2017-05-06T12:21:40.567Z,576
2017-05-06T12:22:53.367Z,508
2017-05-06T12:24:06.155Z,504
2017-05-06T12:25:18.939Z,524
2017-05-06T12:26:31.256Z,540
2017-05-06T12:27:44.051Z,548
2017-05-06T12:28:56.853Z,568
2017-05-06T12:30:09.153Z,568
2017-05-06T12:31:21.940Z,548
2017-05-06T12:32:34.736Z,508
2017-05-06T12:33:47.521Z,488
2017-05-06T12:35:00.302Z,464
2017-05-06T12:36:12.124Z,440
2017-05-06T12:37:24.910Z,416
2017-05-06T12:38:37.228Z,412
2017-05-06T12:39:49.529Z,420
2017-05-06T12:41:02.318Z,444
2017-05-06T12:42:14.632Z,484
2017-05-06T12:43:26.961Z,520
2017-05-06T12:44:39.955Z,548
2017-05-06T12:45:51.778Z,560
2017-05-06T12:47:04.567Z,548
2017-05-06T12:48:16.879Z,520
2017-05-06T12:49:29.981Z,476
2017-05-06T12:50:42.280Z,424
2017-05-06T12:51:55.063Z,376
2017-05-06T12:53:07.849Z,340
2017-05-06T12:54:20.634Z,316
2017-05-06T12:55:33.613Z,308
2017-05-06T12:56:46.395Z,316
2017-05-06T12:57:59.183Z,348
2017-05-06T12:59:11.980Z,396
2017-05-06T13:00:24.969Z,460
2017-05-06T13:01:37.268Z,496
2017-05-06T13:02:50.065Z,528
2017-05-06T13:04:02.865Z,560
2017-05-06T13:05:15.166Z,580
2017-05-06T13:06:27.464Z,600
2017-05-06T13:07:40.249Z,628
2017-05-06T13:08:52.562Z,656
2017-05-06T13:10:05.348Z,676
2017-05-06T13:11:17.175Z,680
2017-05-06T13:12:29.964Z,676
2017-05-06T13:13:42.757Z,676
2017-05-06T13:14:55.553Z,652
2017-05-06T13:16:07.859Z,644
2017-05-06T13:17:20.170Z,640
2017-05-06T13:18:32.957Z,652
2017-05-06T13:19:45.266Z,672
2017-05-06T13:20:58.061Z,688
2017-05-06T13:22:10.614Z,712
2017-05-06T13:23:23.427Z,696
2017-05-06T13:24:36.251Z,680
2017-05-06T13:25:48.585Z,676
2017-05-06T13:27:01.380Z,656
2017-05-06T13:28:13.721Z,648
2017-05-06T13:29:26.061Z,628
2017-05-06T13:30:39.137Z,632
2017-05-06T13:31:51.662Z,648
2017-05-06T13:33:04.229Z,668
2017-05-06T13:34:16.192Z,680
2017-05-06T13:35:28.988Z,700
2017-05-06T13:36:41.453Z,716
2017-05-06T13:37:54.235Z,712
2017-05-06T13:39:07.216Z,680
2017-05-06T13:40:19.997Z,628
2017-05-06T13:41:32.804Z,588
2017-05-06T13:42:45.587Z,556
2017-05-06T13:43:57.898Z,592
2017-05-06T13:45:10.688Z,572
2017-05-06T13:46:23.472Z,1676
2017-05-06T13:47:35.782Z,1808
2017-05-06T13:48:48.570Z,1816
2017-05-06T13:50:00.873Z,1880
2017-05-06T13:51:13.664Z,1920
2017-05-06T13:52:25.972Z,2040
2017-05-06T13:53:38.780Z,1872
2017-05-06T13:54:51.834Z,1764
2017-05-06T13:56:04.651Z,1536
2017-05-06T13:57:17.008Z,1952
2017-05-06T13:58:29.826Z,1360
2017-05-06T13:59:42.611Z,1428
2017-05-06T14:00:54.908Z,1192
2017-05-06T14:02:07.692Z,1200
2017-05-06T14:03:20.512Z,1328
2017-05-06T14:04:33.298Z,1384
2017-05-06T14:05:46.306Z,1144
2017-05-06T14:06:59.095Z,1144
2017-05-06T14:08:11.417Z,1028
2017-05-06T14:09:23.248Z,1052
2017-05-06T14:10:36.027Z,1184
2017-05-06T14:11:48.857Z,940
2017-05-06T14:13:01.638Z,848
2017-05-06T14:14:14.422Z,792
2017-05-06T14:15:26.733Z,740
2017-05-06T14:16:39.713Z,760
2017-05-06T14:17:52.497Z,700
2017-05-06T14:19:05.282Z,740
2017-05-06T14:20:17.585Z,828
2017-05-06T14:21:30.364Z,876
2017-05-06T14:22:42.673Z,1012
2017-05-06T14:23:54.978Z,1100
2017-05-06T14:25:07.768Z,1520
2017-05-06T14:26:20.548Z,1164
2017-05-06T14:27:33.527Z,1240
2017-05-06T14:28:46.314Z,1196
2017-05-06T14:29:59.109Z,1100
2017-05-06T14:31:11.891Z,1784
2017-05-06T14:32:24.675Z,928
2017-05-06T14:33:37.457Z,1236
2017-05-06T14:34:50.242Z,1352
2017-05-06T14:36:02.543Z,1096
2017-05-06T14:37:15.329Z,2016
2017-05-06T14:38:28.110Z,1344
2017-05-06T14:39:40.900Z,2036
2017-05-06T14:40:53.685Z,2184
2017-05-06T14:42:06.469Z,2048
2017-05-06T14:43:19.251Z,1120
2017-05-06T14:44:32.069Z,736
2017-05-06T14:45:44.851Z,1000
2017-05-06T14:46:57.669Z,760
2017-05-06T14:48:09.971Z,2060
2017-05-06T14:49:22.769Z,2076
2017-05-06T14:50:35.551Z,2012
2017-05-06T14:51:48.333Z,1940
2017-05-06T14:53:01.116Z,1848
2017-05-06T14:54:13.904Z,1844
2017-05-06T14:55:26.896Z,1824
2017-05-06T14:56:38.716Z,1860
2017-05-06T14:57:51.503Z,1832
2017-05-06T14:59:04.294Z,1820
2017-05-06T15:00:16.594Z,760
2017-05-06T15:01:28.896Z,740
2017-05-06T15:02:41.683Z,796
2017-05-06T15:03:54.467Z,852
2017-05-06T15:05:07.259Z,868
2017-05-06T15:06:20.242Z,884
2017-05-06T15:07:33.026Z,1204
2017-05-06T15:08:45.810Z,1464
2017-05-06T15:09:58.596Z,1444
2017-05-06T15:11:11.586Z,1388
2017-05-06T15:12:23.886Z,1372
2017-05-06T15:13:36.674Z,1344
2017-05-06T15:14:49.458Z,808
2017-05-06T15:16:01.764Z,1332
2017-05-06T15:17:14.552Z,540
2017-05-06T15:18:27.335Z,576
2017-05-06T15:19:39.636Z,656
2017-05-06T15:20:52.420Z,700
2017-05-06T15:22:05.208Z,536
2017-05-06T15:23:17.999Z,448
2017-05-06T15:24:29.822Z,1192
2017-05-06T15:25:42.614Z,1180
2017-05-06T15:26:55.400Z,1136
2017-05-06T15:28:08.384Z,1128
2017-05-06T15:29:21.169Z,1120
2017-05-06T15:30:33.983Z,1156
2017-05-06T15:31:46.765Z,1160
2017-05-06T15:32:59.753Z,1164
2017-05-06T15:34:12.054Z,1184
2017-05-06T15:35:24.837Z,1200
2017-05-06T15:36:37.623Z,1220
2017-05-06T15:37:50.405Z,1112
2017-05-06T15:39:03.197Z,832
2017-05-06T15:40:15.985Z,892
2017-05-06T15:41:28.307Z,984
2017-05-06T15:42:41.096Z,996
2017-05-06T15:43:53.876Z,1132
2017-05-06T15:45:06.183Z,1312
2017-05-06T15:46:18.481Z,1232
2017-05-06T15:47:31.269Z,1200
2017-05-06T15:48:43.572Z,996
2017-05-06T15:49:56.072Z,900
2017-05-06T15:51:08.862Z,884
2017-05-06T15:52:21.646Z,900
2017-05-06T15:53:34.431Z,804
2017-05-06T15:54:47.218Z,788
2017-05-06T15:56:00.007Z,760
2017-05-06T15:57:12.797Z,768
2017-05-06T15:58:25.583Z,760
2017-05-06T15:59:38.371Z,748
2017-05-06T16:00:51.361Z,752
2017-05-06T16:02:03.659Z,752
2017-05-06T16:03:15.002Z,728
2017-05-06T16:04:27.786Z,692
2017-05-06T16:05:40.578Z,672
2017-05-06T16:06:53.369Z,704
2017-05-06T16:08:06.155Z,704
2017-05-06T16:09:18.942Z,624
2017-05-06T16:10:31.729Z,812
2017-05-06T16:11:44.532Z,784
2017-05-06T16:12:57.321Z,760
2017-05-06T16:14:10.117Z,480
2017-05-06T16:15:22.907Z,672
2017-05-06T16:16:35.715Z,644
2017-05-06T16:17:48.515Z,628
2017-05-06T16:19:01.337Z,624
2017-05-06T16:20:14.167Z,624
2017-05-06T16:21:26.980Z,636
2017-05-06T16:22:39.809Z,656
2017-05-06T16:23:52.637Z,692
2017-05-06T16:25:04.952Z,748
2017-05-06T16:26:17.742Z,796
2017-05-06T16:27:30.263Z,808
2017-05-06T16:28:43.090Z,968
2017-05-06T16:29:55.926Z,988
2017-05-06T16:31:08.813Z,788
2017-05-06T16:32:21.211Z,1036
2017-05-06T16:33:34.343Z,776
2017-05-06T16:34:47.295Z,780
2017-05-06T16:36:00.286Z,784
2017-05-06T16:37:13.154Z,824
2017-05-06T16:38:25.481Z,780
2017-05-06T16:39:37.793Z,768
2017-05-06T16:40:50.776Z,784
2017-05-06T16:42:03.600Z,796
2017-05-06T16:43:15.955Z,848
2017-05-06T16:44:28.777Z,828
2017-05-06T16:45:41.101Z,908
2017-05-06T16:46:53.932Z,1016
2017-05-06T16:48:06.267Z,872
2017-05-06T16:49:19.281Z,820
2017-05-06T16:50:31.589Z,784
2017-05-06T16:51:44.372Z,872
2017-05-06T16:52:57.162Z,840
2017-05-06T16:54:09.466Z,996
2017-05-06T16:55:22.701Z,944
2017-05-06T16:56:35.488Z,764
2017-05-06T16:57:48.276Z,744
2017-05-06T16:59:01.072Z,732
2017-05-06T17:00:13.683Z,708
2017-05-06T17:01:26.472Z,700
2017-05-06T17:02:38.293Z,696
2017-05-06T17:03:50.598Z,672
2017-05-06T17:05:03.398Z,660
2017-05-06T17:06:15.706Z,648
2017-05-06T17:07:28.012Z,620